| Date | Time | Temp. (oF) | Dew Point (oF) | Rel. Hum. (%) | Press. (in.) | Wind Dir. | Wind Speed (mph) | Hourly Rainfall (in.) |
|
|---|---|---|---|---|---|---|---|---|---|
| 1 | 04/05 | 00:00 | 48 | 28 | 46 | 29.83 | NW | 5 | 0.00 |
| 2 | 04/04 | 23:00 | 50 | 28 | 44 | 29.81 | NW | 12 | 0.00 |
| 3 | 04/04 | 22:00 | 50 | 30 | 47 | 29.80 | NNW | 3 | 0.00 |
| 4 | 04/04 | 21:00 | 51 | 30 | 45 | 29.77 | NW | 7 | 0.00 |
| 5 | 04/04 | 20:00 | 52 | 30 | 44 | 29.74 | N | 7 | 0.00 |
| 6 | 04/04 | 19:00 | 54 | 31 | 43 | 29.71 | W | 15 | 0.00 |
| 7 | 04/04 | 18:00 | 57 | 34 | 42 | 29.68 | NNW | 13 | 0.00 |
| 8 | 04/04 | 17:00 | 58 | 34 | 41 | 29.66 | WSW | 8 | 0.00 |
| 9 | 04/04 | 16:00 | 59 | 36 | 43 | 29.66 | NW | 6 | 0.00 |
| 10 | 04/04 | 15:00 | 58 | 36 | 44 | 29.66 | WNW | 13 | 0.00 |
| 11 | 04/04 | 14:00 | 56 | 34 | 45 | 29.66 | NW | 16 | 0.00 |
| 12 | 04/04 | 13:00 | 54 | 35 | 49 | 29.66 | NW | 8 | 0.00 |
| 13 | 04/04 | 12:00 | 52 | 33 | 49 | 29.66 | WNW | 12 | 0.00 |
| 14 | 04/04 | 11:00 | 49 | 32 | 52 | 29.66 | W | 19 | 0.00 |
| 15 | 04/04 | 10:00 | 48 | 32 | 54 | 29.66 | WSW | 14 | 0.00 |
| 16 | 04/04 | 09:00 | 46 | 30 | 54 | 29.65 | SW | 11 | 0.00 |
| 17 | 04/04 | 08:00 | 44 | 28 | 55 | 29.63 | W | 9 | 0.00 |
| 18 | 04/04 | 07:00 | 45 | 31 | 59 | 29.59 | SSW | 13 | 0.00 |
| 19 | 04/04 | 06:00 | 47 | 32 | 58 | 29.56 | WNW | 13 | 0.00 |
| 20 | 04/04 | 05:00 | 50 | 36 | 60 | 29.51 | WSW | 10 | 0.00 |
| 21 | 04/04 | 04:00 | 51 | 39 | 64 | 29.48 | WSW | 11 | 0.00 |
| 22 | 04/04 | 03:00 | 52 | 39 | 63 | 29.46 | SW | 8 | 0.00 |
| 23 | 04/04 | 02:00 | 52 | 40 | 66 | 29.45 | WNW | 9 | 0.00 |
| 24 | 04/04 | 01:00 | 52 | 40 | 64 | 29.45 | W | 13 | 0.00 |